Schefield, North Dakota
Current Conditions -  °F | °C
As of 12:56 PM on Sunday 23 Nov 2014 (Local Time) from KDIK Reporting Station
Overcast Overcast  
Wind Chill:   Ceiling: 2300
Heat Index: 24°   Visibility: 10mi
Dew Point: 15°   Wind: 36mph
Humidity: 69%   Direction: 300°WNW
Pressure: 29.63"   Gusts: 43mph
Location:  46.4704°N, 102.78°W
Report Text: KDIK 231956Z AUTO 30031G37KT 10SM BKN023 OVC028 M04/M09 A2963 RMK AO2 PK WND 31041/1920 SLP058 T10441094
Loading
Personal Weather Stations






























Interactive Weather Map New forecast layout! Learn more

10-Day Weather Forecast

Advertisements
Track Severe Weather on mobile